Time;durP1;ratioP1;P1;durP2;ratioP2;P2;SDS_P1;SDS_P2;PMS_P1;PMS_P2;Temp;Humidity;BMP_temperature;BMP_pressure;BME280_temperature;BME280_humidity;BME280_pressure;Samples;Min_cycle;Max_cycle;Signal;HPM_P1;HPM_P2
2022/01/28 00:04:59;;;;;;;27.05;10.75;;;2.00;99.90;;;;;;5114511;28;20020;-82
2022/01/28 00:07:24;;;;;;;25.75;10.95;;;2.00;99.90;;;;;;5091949;28;20027;-83
2022/01/28 00:09:53;;;;;;;29.95;11.25;;;2.00;99.90;;;;;;5082186;28;20036;-82
2022/01/28 00:12:19;;;;;;;24.70;10.82;;;2.00;99.90;;;;;;5063031;28;20183;-82
2022/01/28 00:15:04;;;;;;;23.15;10.15;;;2.00;99.90;;;;;;5057027;28;20430;-82
2022/01/28 00:36:41;;;;;;;18.88;8.90;;;1.90;99.90;;;;;;5079654;28;20120;-83
2022/01/28 00:39:07;;;;;;;31.77;9.93;;;1.90;99.90;;;;;;5085107;28;20031;-83
2022/01/28 00:41:33;;;;;;;26.52;11.23;;;1.90;99.90;;;;;;5073248;28;20166;-82
2022/01/28 00:44:01;;;;;;;23.75;9.90;;;1.90;99.90;;;;;;5094931;28;20097;-83
2022/01/28 00:46:27;;;;;;;26.98;11.07;;;1.90;99.90;;;;;;5096014;28;20516;-83
2022/01/28 00:48:53;;;;;;;23.63;10.23;;;1.90;99.90;;;;;;5090205;28;20488;-82
2022/01/28 00:51:19;;;;;;;23.65;10.25;;;2.00;99.90;;;;;;5075892;28;20436;-83
2022/01/28 00:53:44;;;;;;;28.70;12.13;;;2.00;99.90;;;;;;5069508;28;20044;-82
2022/01/28 00:56:10;;;;;;;29.90;11.52;;;2.00;99.90;;;;;;5077945;28;20730;-82
2022/01/28 00:58:37;;;;;;;30.40;10.88;;;2.00;99.90;;;;;;5074342;28;20032;-82
2022/01/28 01:01:02;;;;;;;22.90;10.52;;;2.00;99.90;;;;;;5054223;28;20032;-82
2022/01/28 01:03:28;;;;;;;25.95;10.88;;;2.00;99.90;;;;;;5075349;28;20392;-82
2022/01/28 01:05:57;;;;;;;28.02;10.02;;;2.00;99.90;;;;;;5064831;28;20478;-82
2022/01/28 01:08:26;;;;;;;25.77;10.45;;;2.00;99.90;;;;;;5084989;28;20028;-82
2022/01/28 01:10:54;;;;;;;28.38;10.60;;;2.00;99.90;;;;;;5093773;28;20031;-83
2022/01/28 01:13:19;;;;;;;34.92;12.27;;;2.10;99.90;;;;;;5081210;28;20035;-83
2022/01/28 01:15:50;;;;;;;27.98;10.57;;;2.10;99.90;;;;;;5078352;28;20024;-82
2022/01/28 01:18:28;;;;;;;28.70;11.95;;;2.10;99.90;;;;;;5093429;28;20040;-82
2022/01/28 01:23:32;;;;;;;26.08;10.68;;;2.10;99.90;;;;;;5078563;28;20575;-84
2022/01/28 01:28:34;;;;;;;27.77;10.55;;;2.10;99.90;;;;;;5092048;28;20032;-83
2022/01/28 01:31:03;;;;;;;30.20;11.60;;;2.20;99.90;;;;;;5112494;28;20020;-84
2022/01/28 01:33:33;;;;;;;29.60;11.40;;;2.20;99.90;;;;;;5074056;28;20024;-82
2022/01/28 01:36:05;;;;;;;29.35;11.18;;;2.20;99.90;;;;;;5084395;28;20020;-82
2022/01/28 01:38:34;;;;;;;34.53;11.65;;;2.20;99.90;;;;;;5071326;28;20439;-82
2022/01/28 01:41:03;;;;;;;30.58;11.77;;;2.30;99.90;;;;;;5094239;28;20039;-82
2022/01/28 01:46:24;;;;;;;36.65;12.40;;;2.30;99.90;;;;;;5077224;28;20047;-82
2022/01/28 01:54:21;;;;;;;37.90;13.50;;;2.30;99.90;;;;;;5096657;28;20134;-83
2022/01/28 01:56:47;;;;;;;28.73;12.80;;;2.30;99.90;;;;;;5094971;28;20755;-82
2022/01/28 01:59:14;;;;;;;33.70;13.98;;;2.30;99.90;;;;;;5095315;28;20828;-82
2022/01/28 02:01:39;;;;;;;37.08;13.60;;;2.30;99.90;;;;;;5073566;28;20065;-82
2022/01/28 02:04:09;;;;;;;35.97;13.30;;;2.40;99.90;;;;;;5041422;28;20122;-82
2022/01/28 02:06:36;;;;;;;33.20;12.95;;;2.30;99.90;;;;;;5080930;28;20028;-83
2022/01/28 02:09:04;;;;;;;37.30;13.63;;;2.30;99.90;;;;;;5075700;28;20059;-82
2022/01/28 02:11:30;;;;;;;39.45;13.85;;;2.40;99.90;;;;;;5075675;28;20040;-82
2022/01/28 02:13:56;;;;;;;35.30;13.43;;;2.40;99.90;;;;;;5056818;28;20032;-82
2022/01/28 02:16:25;;;;;;;38.17;14.07;;;2.40;99.90;;;;;;5056653;28;20043;-84
2022/01/28 02:18:56;;;;;;;38.58;13.00;;;2.30;99.90;;;;;;5091265;28;20035;-83
2022/01/28 02:21:22;;;;;;;33.60;13.45;;;2.40;99.90;;;;;;5041243;28;20042;-83
2022/01/28 02:23:52;;;;;;;38.30;13.60;;;2.40;99.90;;;;;;5059396;28;20033;-83
2022/01/28 02:26:31;;;;;;;33.97;12.13;;;2.40;99.90;;;;;;5073597;28;20131;-82
2022/01/28 02:29:06;;;;;;;38.83;14.57;;;2.40;99.90;;;;;;5074457;28;20712;-82
2022/01/28 02:31:36;;;;;;;38.35;13.02;;;2.40;99.90;;;;;;5057616;28;20032;-83
2022/01/28 02:34:07;;;;;;;39.17;13.10;;;2.40;99.90;;;;;;5069250;28;20035;-83
2022/01/28 02:36:41;;;;;;;;;;;2.40;99.90;;;;;;5073887;28;20803;-82
2022/01/28 02:39:12;;;;;;;30.88;12.38;;;2.40;99.90;;;;;;5078939;28;19912;-82
2022/01/28 02:41:41;;;;;;;38.05;13.00;;;2.40;99.90;;;;;;5041984;28;20032;-82
2022/01/28 02:47:00;;;;;;;34.67;12.50;;;2.40;99.90;;;;;;5097330;28;20067;-83
2022/01/28 02:49:39;;;;;;;34.30;11.68;;;2.40;99.90;;;;;;5079093;28;20032;-82
2022/01/28 02:52:06;;;;;;;42.42;13.13;;;2.40;99.90;;;;;;5062928;28;20109;-82
2022/01/28 02:54:40;;;;;;;34.25;12.55;;;2.40;99.90;;;;;;5077480;28;20032;-82
2022/01/28 02:57:06;;;;;;;33.30;12.98;;;2.40;99.90;;;;;;5097686;28;20404;-82
2022/01/28 02:59:32;;;;;;;38.33;13.27;;;2.40;99.90;;;;;;5059047;28;20036;-82
2022/01/28 03:02:01;;;;;;;36.35;13.05;;;2.50;99.90;;;;;;5076112;28;20418;-82
2022/01/28 03:07:11;;;;;;;34.20;12.43;;;2.50;99.90;;;;;;5099305;28;20064;-82
2022/01/28 03:12:33;;;;;;;37.08;12.35;;;2.40;99.90;;;;;;5069515;28;20046;-82
2022/01/28 03:15:04;;;;;;;34.90;12.52;;;2.40;99.90;;;;;;5045838;28;20470;-81
2022/01/28 03:17:52;;;;;;;;;;;2.40;99.90;;;;;;5062155;28;20463;-82
2022/01/28 03:22:45;;;;;;;35.17;12.90;;;2.40;99.90;;;;;;5095269;28;20020;-82
2022/01/28 03:25:15;;;;;;;31.08;12.95;;;2.40;99.90;;;;;;5080382;28;20049;-82
2022/01/28 03:27:52;;;;;;;32.90;12.23;;;2.30;99.90;;;;;;5079647;28;20068;-82
2022/01/28 03:30:24;;;;;;;44.50;12.82;;;2.30;99.90;;;;;;5078231;28;20028;-84
2022/01/28 03:32:50;;;;;;;33.70;12.38;;;2.30;99.90;;;;;;5049803;28;20035;-83
2022/01/28 03:35:18;;;;;;;41.90;13.65;;;2.30;99.90;;;;;;5079318;28;20036;-82
2022/01/28 03:37:59;;;;;;;39.90;13.20;;;2.30;99.90;;;;;;5095576;28;20511;-82
2022/01/28 03:40:36;;;;;;;34.50;12.48;;;2.30;99.90;;;;;;5082160;28;20028;-82
2022/01/28 03:43:07;;;;;;;36.90;13.15;;;2.30;99.90;;;;;;5070503;28;20031;-83
2022/01/28 03:45:32;;;;;;;;;;;2.30;99.90;;;;;;5094776;28;20396;-82
2022/01/28 03:47:58;;;;;;;35.63;11.13;;;2.30;99.90;;;;;;5093149;28;19912;-83
2022/01/28 03:50:23;;;;;;;32.35;12.40;;;2.30;99.90;;;;;;5079389;28;20399;-82
2022/01/28 03:52:52;;;;;;;35.47;12.52;;;2.30;99.90;;;;;;5070885;28;20024;-82
2022/01/28 03:55:18;;;;;;;34.75;11.43;;;2.30;99.90;;;;;;5058461;28;20024;-82
2022/01/28 03:57:44;;;;;;;29.92;12.90;;;2.30;99.90;;;;;;5076441;28;20046;-84
2022/01/28 04:00:11;;;;;;;35.97;13.00;;;2.30;99.90;;;;;;5067946;28;20416;-83
2022/01/28 04:02:40;;;;;;;32.25;11.95;;;2.20;99.90;;;;;;5078344;28;20051;-82
2022/01/28 04:13:34;;;;;;;34.90;11.23;;;2.20;99.90;;;;;;5106536;28;20461;-82
2022/01/28 04:18:28;;;;;;;41.05;13.75;;;2.20;99.90;;;;;;5087664;28;20036;-82
2022/01/28 04:20:54;;;;;;;40.05;12.18;;;2.20;99.90;;;;;;5093963;28;20080;-82
2022/01/28 04:23:20;;;;;;;41.78;13.88;;;2.20;99.90;;;;;;5067013;28;20032;-82
2022/01/28 04:25:45;;;;;;;39.97;12.73;;;2.20;99.90;;;;;;5060717;28;20050;-82
2022/01/28 04:28:14;;;;;;;39.63;13.90;;;2.20;99.90;;;;;;5057842;28;20551;-83
2022/01/28 04:30:50;;;;;;;39.88;12.45;;;2.10;99.90;;;;;;5075392;28;20089;-82
2022/01/28 04:33:15;;;;;;;40.42;11.82;;;2.10;99.90;;;;;;5070747;28;20455;-83
2022/01/28 04:35:41;;;;;;;43.33;13.55;;;2.10;99.90;;;;;;5076420;28;20032;-82
2022/01/28 04:41:15;;;;;;;44.75;12.32;;;2.10;99.90;;;;;;5100840;28;20191;-82
2022/01/28 04:43:38;;;;;;;43.05;13.35;;;2.00;99.90;;;;;;5074534;28;20668;-83
2022/01/28 05:11:50;;;;;;;36.08;12.13;;;1.80;99.90;;;;;;5079198;28;20046;-82
2022/01/28 05:14:45;;;;;;;34.85;12.82;;;1.80;99.90;;;;;;5083908;28;20084;-83
2022/01/28 05:25:46;;;;;;;35.85;12.20;;;1.80;99.90;;;;;;5111567;28;20049;-83
2022/01/28 05:28:16;;;;;;;40.50;13.00;;;1.70;99.90;;;;;;5071600;28;20153;-82
2022/01/28 05:30:49;;;;;;;37.90;12.40;;;1.70;99.90;;;;;;5077679;28;20036;-82
2022/01/28 05:33:15;;;;;;;42.83;12.65;;;1.70;99.90;;;;;;5094285;28;20448;-83
2022/01/28 05:35:44;;;;;;;42.35;12.60;;;1.70;99.90;;;;;;5109857;28;20175;-82
2022/01/28 05:38:13;;;;;;;31.65;11.13;;;1.70;99.90;;;;;;5060319;28;20032;-83
2022/01/28 05:40:43;;;;;;;37.03;11.23;;;1.60;99.90;;;;;;5084276;28;20522;-83
2022/01/28 05:43:08;;;;;;;29.60;11.45;;;1.60;99.90;;;;;;5056945;28;20302;-82
2022/01/28 05:45:34;;;;;;;32.78;11.98;;;1.60;99.90;;;;;;5080950;28;20102;-82
2022/01/28 05:48:02;;;;;;;38.25;12.55;;;1.50;99.90;;;;;;5052937;28;20036;-82
2022/01/28 05:50:32;;;;;;;31.95;11.52;;;1.50;99.90;;;;;;5056769;28;20068;-82
2022/01/28 05:53:00;;;;;;;34.00;11.33;;;1.50;99.90;;;;;;5095756;28;20020;-83
2022/01/28 05:55:28;;;;;;;40.15;10.85;;;1.50;99.90;;;;;;5091648;28;20034;-83
2022/01/28 05:57:54;;;;;;;32.17;10.95;;;1.60;99.90;;;;;;5082701;28;20038;-82
2022/01/28 06:00:19;;;;;;;36.22;11.63;;;1.60;99.90;;;;;;5040207;28;20028;-82
2022/01/28 06:02:46;;;;;;;37.15;11.93;;;1.60;99.90;;;;;;5071917;28;20457;-83
2022/01/28 06:05:17;;;;;;;38.53;13.00;;;1.60;99.90;;;;;;5101569;28;20024;-82
2022/01/28 06:07:43;;;;;;;;;;;1.70;99.90;;;;;;5078164;28;20019;-82
2022/01/28 06:10:10;;;;;;;30.83;11.40;;;1.70;99.90;;;;;;5057258;28;19915;-82
2022/01/28 06:12:43;;;;;;;28.48;10.07;;;1.70;99.90;;;;;;5073716;28;20534;-83
2022/01/28 06:15:10;;;;;;;31.92;11.38;;;1.70;99.90;;;;;;5083686;28;20035;-83
2022/01/28 06:17:36;;;;;;;38.30;11.77;;;1.60;99.90;;;;;;5078817;28;20028;-83
2022/01/28 06:20:13;;;;;;;34.60;12.43;;;1.50;99.90;;;;;;5063972;28;20097;-82
2022/01/28 06:22:39;;;;;;;31.20;11.23;;;1.50;99.90;;;;;;5096269;28;20071;-83
2022/01/28 06:25:07;;;;;;;36.70;11.63;;;1.50;99.90;;;;;;5077605;28;20019;-82
2022/01/28 06:27:32;;;;;;;36.67;11.48;;;1.40;99.90;;;;;;5092315;28;20027;-82
2022/01/28 06:30:04;;;;;;;37.70;11.90;;;1.40;99.90;;;;;;5101654;28;20123;-82
2022/01/28 06:32:34;;;;;;;41.20;12.82;;;1.40;99.90;;;;;;5084360;28;20056;-82
2022/01/28 06:35:08;;;;;;;36.28;11.55;;;1.40;99.90;;;;;;5059899;28;20032;-82
2022/01/28 06:37:38;;;;;;;40.95;12.75;;;1.40;99.90;;;;;;5089885;28;20024;-82
2022/01/28 06:40:08;;;;;;;45.38;12.63;;;1.40;99.90;;;;;;5066191;28;20073;-82
2022/01/28 06:42:34;;;;;;;35.88;9.88;;;1.40;99.90;;;;;;5103797;28;20422;-82
2022/01/28 06:45:03;;;;;;;38.55;11.50;;;1.30;99.90;;;;;;5059443;28;20064;-82
2022/01/28 06:47:29;;;;;;;34.92;11.00;;;1.30;99.90;;;;;;5095480;28;20027;-83
2022/01/28 06:49:54;;;;;;;35.53;11.30;;;1.30;99.90;;;;;;5059221;28;20073;-82
2022/01/28 06:52:24;;;;;;;42.45;11.75;;;1.30;99.90;;;;;;5091721;28;20031;-82
2022/01/28 06:54:50;;;;;;;29.37;10.77;;;1.20;99.90;;;;;;5093333;28;20044;-82
2022/01/28 06:57:16;;;;;;;35.28;10.38;;;1.20;99.90;;;;;;5073957;28;20277;-82
2022/01/28 06:59:44;;;;;;;34.90;12.27;;;1.30;99.90;;;;;;5093066;28;20027;-82
2022/01/28 07:02:13;;;;;;;44.08;13.52;;;1.30;99.90;;;;;;5058227;28;20499;-82
2022/01/28 07:04:39;;;;;;;37.33;11.85;;;1.30;99.90;;;;;;5070747;28;20085;-82
2022/01/28 07:07:05;;;;;;;37.13;11.45;;;1.30;99.90;;;;;;5073075;28;20036;-82
2022/01/28 07:09:32;;;;;;;32.20;10.52;;;1.30;99.90;;;;;;5060926;28;20040;-83
2022/01/28 07:11:58;;;;;;;37.22;12.57;;;1.40;99.90;;;;;;5054856;28;20028;-82
2022/01/28 07:14:24;;;;;;;37.75;10.77;;;1.40;99.90;;;;;;5062909;28;20042;-83
2022/01/28 07:16:49;;;;;;;37.17;12.27;;;1.40;99.90;;;;;;5050877;28;20119;-82
2022/01/28 07:19:15;;;;;;;42.20;12.63;;;1.50;99.90;;;;;;5080301;28;20063;-82
2022/01/28 07:21:49;;;;;;;34.67;11.75;;;1.50;99.90;;;;;;5084712;28;20473;-83
2022/01/28 07:24:15;;;;;;;33.72;10.65;;;1.50;99.90;;;;;;5068808;28;20031;-82
2022/01/28 07:26:41;;;;;;;31.40;12.25;;;1.60;99.90;;;;;;5043832;28;20105;-84
2022/01/28 07:29:09;;;;;;;29.58;10.85;;;1.60;99.90;;;;;;5094386;28;20059;-82
2022/01/28 07:31:36;;;;;;;47.13;13.60;;;1.60;99.90;;;;;;5086057;28;20080;-82
2022/01/28 07:34:06;;;;;;;33.40;12.13;;;1.70;99.90;;;;;;5115435;28;20031;-82
2022/01/28 07:36:37;;;;;;;26.52;11.10;;;1.70;99.90;;;;;;5078595;28;20195;-82
2022/01/28 07:39:06;;;;;;;;;;;1.80;99.90;;;;;;5100739;28;20065;-82
2022/01/28 07:41:33;;;;;;;26.38;9.88;;;1.80;99.90;;;;;;5079281;28;20274;-82
2022/01/28 07:44:02;;;;;;;24.83;9.52;;;1.80;99.90;;;;;;5114188;28;20023;-83
2022/01/28 07:46:36;;;;;;;35.15;12.23;;;1.80;99.90;;;;;;5096791;28;20035;-83
2022/01/28 07:49:02;;;;;;;37.92;11.65;;;1.90;99.90;;;;;;5101206;28;20504;-83
2022/01/28 07:51:31;;;;;;;36.47;11.75;;;1.90;99.90;;;;;;5095905;28;20031;-82
2022/01/28 07:54:00;;;;;;;36.17;12.68;;;2.00;99.90;;;;;;5114413;28;20091;-83
2022/01/28 07:56:28;;;;;;;29.30;11.02;;;2.00;99.90;;;;;;5095777;28;20515;-83
2022/01/28 07:58:54;;;;;;;27.58;11.82;;;2.10;99.90;;;;;;5095283;28;20495;-82
2022/01/28 08:01:19;;;;;;;36.55;12.65;;;2.10;99.90;;;;;;5078761;28;20024;-82
2022/01/28 08:03:45;;;;;;;37.90;13.57;;;2.10;99.90;;;;;;5062003;28;20023;-83
2022/01/28 08:06:18;;;;;;;34.85;12.98;;;2.20;99.90;;;;;;5082149;28;20031;-83
2022/01/28 08:08:46;;;;;;;36.22;12.52;;;2.20;99.90;;;;;;5063163;28;20036;-83
2022/01/28 08:11:12;;;;;;;37.42;13.02;;;2.30;99.90;;;;;;5062019;28;20042;-83
2022/01/28 08:13:37;;;;;;;44.20;13.63;;;2.30;99.90;;;;;;5095588;28;20559;-83
2022/01/28 08:16:10;;;;;;;34.45;12.40;;;2.40;99.90;;;;;;5083119;28;20028;-82
2022/01/28 08:18:40;;;;;;;33.80;12.65;;;2.40;99.90;;;;;;5095170;28;20042;-82
2022/01/28 08:21:06;;;;;;;33.87;11.37;;;2.50;99.90;;;;;;5113781;28;20019;-83
2022/01/28 08:23:32;;;;;;;37.75;12.38;;;2.50;99.90;;;;;;5078515;28;20034;-82
2022/01/28 08:25:58;;;;;;;33.38;12.25;;;2.60;99.90;;;;;;5095735;28;20567;-82
2022/01/28 08:28:23;;;;;;;30.02;12.38;;;2.70;99.90;;;;;;5061128;28;20134;-82
2022/01/28 08:30:49;;;;;;;35.88;11.48;;;2.70;99.90;;;;;;5113423;28;20028;-83
2022/01/28 08:33:15;;;;;;;33.28;12.50;;;2.70;99.90;;;;;;5095117;28;20047;-82
2022/01/28 08:35:41;;;;;;;42.05;12.65;;;2.80;99.90;;;;;;5078290;28;20032;-82
2022/01/28 08:38:24;;;;;;;34.13;12.32;;;2.90;99.90;;;;;;5093991;28;20067;-82
2022/01/28 08:40:52;;;;;;;34.88;12.32;;;2.90;99.90;;;;;;5095033;28;20042;-83
2022/01/28 08:43:17;;;;;;;32.58;11.05;;;2.90;99.90;;;;;;5095429;28;20024;-82
2022/01/28 08:45:50;;;;;;;32.08;12.27;;;3.00;99.90;;;;;;5081150;28;20507;-82
2022/01/28 08:48:21;;;;;;;27.40;11.65;;;3.00;99.90;;;;;;5097268;28;20405;-83
2022/01/28 08:50:47;;;;;;;33.90;11.40;;;3.00;99.90;;;;;;5061864;28;20035;-83
2022/01/28 08:53:13;;;;;;;36.70;11.45;;;3.10;99.90;;;;;;5077505;28;20034;-82
2022/01/28 08:55:39;;;;;;;25.17;10.90;;;3.10;99.90;;;;;;5095284;28;20034;-82
2022/01/28 08:58:07;;;;;;;39.17;11.98;;;3.10;99.90;;;;;;5093606;28;20027;-82
2022/01/28 09:00:36;;;;;;;35.53;13.25;;;3.20;99.90;;;;;;5095747;28;20509;-83
2022/01/28 09:03:02;;;;;;;27.77;11.27;;;3.20;99.90;;;;;;5080097;28;20102;-82
2022/01/28 09:05:30;;;;;;;31.83;12.40;;;3.30;99.90;;;;;;5095245;28;20056;-83
2022/01/28 09:07:56;;;;;;;30.98;12.55;;;3.30;99.90;;;;;;5095293;28;20035;-82
2022/01/28 09:10:30;;;;;;;27.40;12.38;;;3.30;99.90;;;;;;5078764;28;20023;-82
2022/01/28 09:15:27;;;;;;;33.85;12.05;;;3.40;99.90;;;;;;5114027;28;20081;-83
2022/01/28 09:18:06;;;;;;;29.65;11.70;;;3.40;99.90;;;;;;5113068;28;20031;-82
2022/01/28 09:20:34;;;;;;;26.42;11.00;;;3.40;99.90;;;;;;5080495;28;20118;-83
2022/01/28 09:23:01;;;;;;;24.60;11.15;;;3.50;99.90;;;;;;5078710;28;20035;-82
2022/01/28 09:25:34;;;;;;;33.55;12.05;;;3.50;99.90;;;;;;5095306;28;20028;-82
2022/01/28 09:28:00;;;;;;;28.85;12.18;;;3.50;99.90;;;;;;5112587;28;20085;-84
2022/01/28 09:30:32;;;;;;;27.65;11.27;;;3.50;99.90;;;;;;5095288;28;20351;-82
2022/01/28 09:33:05;;;;;;;33.15;11.90;;;3.60;99.90;;;;;;5113172;28;20032;-83
2022/01/28 09:35:31;;;;;;;34.25;11.32;;;3.60;99.90;;;;;;5094902;28;20030;-82
2022/01/28 09:37:57;;;;;;;32.33;11.88;;;3.60;99.90;;;;;;5073273;28;20404;-82
2022/01/28 09:40:23;;;;;;;26.40;11.80;;;3.60;99.90;;;;;;5088579;28;20024;-82
2022/01/28 09:42:52;;;;;;;37.22;13.43;;;3.70;99.90;;;;;;5112826;28;20038;-84
2022/01/28 09:45:22;;;;;;;29.98;11.05;;;3.60;99.90;;;;;;5091473;28;20024;-84
2022/01/28 09:47:51;;;;;;;29.60;12.63;;;3.70;99.90;;;;;;5061545;28;20032;-84
2022/01/28 09:50:18;;;;;;;33.25;12.23;;;3.70;99.90;;;;;;5067298;28;20407;-84
2022/01/28 09:52:46;;;;;;;31.55;11.82;;;3.70;99.90;;;;;;5057930;28;20036;-85
2022/01/28 09:55:12;;;;;;;34.90;13.30;;;3.80;99.90;;;;;;5068401;28;20040;-84
2022/01/28 09:57:42;;;;;;;34.53;12.43;;;3.90;99.90;;;;;;5111710;28;20035;-85
2022/01/28 10:00:22;;;;;;;36.95;12.73;;;4.00;99.90;;;;;;5061115;28;20046;-84
2022/01/28 10:02:51;;;;;;;34.33;12.15;;;4.10;99.90;;;;;;5075421;28;20027;-84
2022/01/28 10:05:19;;;;;;;33.22;12.75;;;4.20;99.90;;;;;;5074053;28;20020;-84
2022/01/28 10:08:06;;;;;;;30.75;12.50;;;4.40;99.90;;;;;;5073710;28;20028;-84
2022/01/28 10:10:51;;;;;;;27.08;11.68;;;4.40;99.90;;;;;;5076793;28;20028;-85
2022/01/28 10:13:32;;;;;;;29.83;12.77;;;4.40;99.90;;;;;;5093865;28;20067;-84
2022/01/28 10:16:17;;;;;;;35.58;11.38;;;4.40;99.90;;;;;;5092634;28;20036;-85
2022/01/28 10:18:44;;;;;;;31.10;11.80;;;4.30;99.90;;;;;;5111974;28;20019;-84
2022/01/28 10:21:43;;;;;;;33.78;12.25;;;4.30;99.90;;;;;;5112586;28;20011;-85
2022/01/28 10:24:11;;;;;;;32.90;10.98;;;4.30;99.90;;;;;;5079746;28;20396;-84
2022/01/28 10:27:05;;;;;;;23.98;11.20;;;4.30;99.90;;;;;;5092112;28;20027;-85
2022/01/28 10:29:37;;;;;;;29.80;11.70;;;4.30;99.90;;;;;;5095330;28;20036;-84
2022/01/28 10:32:08;;;;;;;32.08;11.93;;;4.30;99.90;;;;;;5076726;28;20062;-85
2022/01/28 10:34:51;;;;;;;36.58;11.45;;;4.30;99.90;;;;;;5089243;28;20366;-84
2022/01/28 10:37:20;;;;;;;28.42;10.65;;;4.30;99.90;;;;;;5087115;28;20040;-83
2022/01/28 10:40:01;;;;;;;37.92;11.13;;;4.30;99.90;;;;;;5054789;28;20077;-84
2022/01/28 10:42:52;;;;;;;29.80;10.98;;;4.50;99.90;;;;;;5068851;28;20095;-83
2022/01/28 10:45:32;;;;;;;29.58;12.50;;;4.50;99.90;;;;;;5071288;28;20024;-83
2022/01/28 10:48:00;;;;;;;26.67;10.15;;;4.50;99.90;;;;;;5071372;28;20101;-84
2022/01/28 10:50:38;;;;;;;26.63;10.18;;;4.50;99.90;;;;;;5087840;28;20497;-83
2022/01/28 10:53:26;;;;;;;30.42;11.23;;;4.50;99.90;;;;;;5090472;28;20126;-83
2022/01/28 10:55:54;;;;;;;24.63;10.25;;;4.50;99.90;;;;;;5091707;28;20035;-83
2022/01/28 10:58:24;;;;;;;26.10;9.88;;;4.40;99.90;;;;;;5090596;28;20031;-83
2022/01/28 11:00:57;;;;;;;19.50;9.02;;;4.50;99.90;;;;;;5108127;28;20023;-84
2022/01/28 11:03:26;;;;;;;24.70;9.93;;;4.50;99.90;;;;;;5082500;28;20035;-84
2022/01/28 11:06:22;;;;;;;22.02;8.98;;;4.70;99.90;;;;;;5087805;28;20028;-84
2022/01/28 11:08:49;;;;;;;23.35;8.82;;;4.80;99.90;;;;;;5087940;28;20100;-83
2022/01/28 11:11:14;;;;;;;20.05;8.40;;;4.90;99.90;;;;;;5054004;28;20037;-83
2022/01/28 11:13:41;;;;;;;20.73;8.82;;;4.90;99.90;;;;;;5068713;28;20107;-83
2022/01/28 11:16:07;;;;;;;24.20;9.05;;;4.90;99.90;;;;;;5070425;28;20024;-83
2022/01/28 11:18:37;;;;;;;18.17;8.25;;;4.90;99.90;;;;;;5086845;28;20417;-83
2022/01/28 11:21:09;;;;;;;17.55;7.72;;;5.00;99.90;;;;;;5086527;28;20031;-83
2022/01/28 11:23:54;;;;;;;21.20;7.97;;;5.00;99.90;;;;;;5070402;28;20032;-84
2022/01/28 11:26:35;;;;;;;17.73;6.63;;;5.00;99.90;;;;;;5072593;28;20035;-83
2022/01/28 11:29:17;;;;;;;18.77;7.57;;;5.00;99.90;;;;;;5076718;28;20423;-83
2022/01/28 11:31:52;;;;;;;13.38;6.07;;;5.10;99.90;;;;;;5086932;28;20030;-83
2022/01/28 11:34:36;;;;;;;22.85;6.53;;;5.20;99.90;;;;;;5086940;28;20060;-83
2022/01/28 11:37:14;;;;;;;15.70;6.15;;;5.20;99.90;;;;;;5086049;28;20024;-83
2022/01/28 11:39:45;;;;;;;16.38;6.57;;;5.10;99.90;;;;;;5087440;28;20028;-83
2022/01/28 11:42:11;;;;;;;17.88;6.68;;;5.20;99.90;;;;;;5086583;28;20043;-83
2022/01/28 11:44:52;;;;;;;16.33;6.45;;;5.20;99.90;;;;;;5081452;28;20040;-84
2022/01/28 11:47:23;;;;;;;;;;;5.30;99.90;;;;;;5073015;28;20138;-83
2022/01/28 11:49:55;;;;;;;;;;;5.30;99.90;;;;;;5072572;28;19916;-83
2022/01/28 11:52:27;;;;;;;;;;;5.30;99.90;;;;;;5072536;28;20316;-83
2022/01/28 11:54:57;;;;;;;;;;;5.30;99.90;;;;;;5056901;28;19916;-83
2022/01/28 11:57:25;;;;;;;;;;;5.40;99.90;;;;;;5051995;28;19916;-83
2022/01/28 11:59:50;;;;;;;;;;;5.50;99.90;;;;;;5070360;28;20342;-84
2022/01/28 12:02:17;;;;;;;;;;;5.60;99.90;;;;;;5055757;28;19962;-83
2022/01/28 12:04:48;;;;;;;;;;;5.60;99.90;;;;;;5055481;28;19912;-84
2022/01/28 12:07:17;;;;;;;;;;;5.70;99.90;;;;;;5072096;28;19923;-84
2022/01/28 12:09:44;;;;;;;;;;;5.80;99.90;;;;;;5072369;28;19908;-83
2022/01/28 12:12:14;;;;;;;;;;;5.80;99.90;;;;;;5072410;28;20361;-84
2022/01/28 12:15:24;;;;;;;;;;;5.90;99.90;;;;;;5073427;28;19927;-84
2022/01/28 12:17:45;;;;;;;;;;;6.00;99.90;;;;;;5072960;28;19908;-84
2022/01/28 12:20:24;;;;;;;;;;;6.00;99.90;;;;;;5055913;28;19916;-84
2022/01/28 12:23:05;;;;;;;;;;;5.90;99.90;;;;;;5072290;28;19912;-84
2022/01/28 12:25:43;;;;;;;;;;;5.80;99.90;;;;;;5072050;28;19912;-83
2022/01/28 12:28:27;;;;;;;;;;;5.70;99.90;;;;;;5073195;28;19905;-83
2022/01/28 12:31:00;;;;;;;;;;;5.70;99.90;;;;;;5072390;28;19912;-82
2022/01/28 12:33:28;;;;;;;;;;;5.70;99.90;;;;;;5088502;28;20497;-84
2022/01/28 12:35:56;;;;;;;;;;;5.70;99.90;;;;;;5073525;28;19912;-84
2022/01/28 12:38:24;;;;;;;;;;;5.70;99.90;;;;;;5071984;28;19948;-84
2022/01/28 12:40:53;;;;;;;;;;;5.70;99.90;;;;;;5072473;28;19927;-83
2022/01/28 12:43:20;;;;;;;;;;;5.60;99.90;;;;;;5071879;28;20434;-84
2022/01/28 12:45:57;;;;;;;;;;;5.60;99.90;;;;;;5073227;28;20361;-84
2022/01/28 12:48:22;;;;;;;;;;;5.50;99.90;;;;;;5071270;28;19904;-83
2022/01/28 12:50:54;;;;;;;;;;;5.50;99.90;;;;;;5071602;28;20118;-84
2022/01/28 12:53:29;;;;;;;;;;;5.50;99.90;;;;;;5071079;28;19958;-84
2022/01/28 12:55:55;;;;;;;;;;;5.50;99.90;;;;;;5070993;28;19998;-84
2022/01/28 12:58:34;;;;;;;;;;;5.60;99.90;;;;;;5070088;28;20464;-83
2022/01/28 13:01:10;;;;;;;;;;;5.60;99.90;;;;;;5089415;28;19919;-83
2022/01/28 13:03:48;;;;;;;;;;;5.60;99.90;;;;;;5079410;28;20262;-84
2022/01/28 13:08:58;;;;;;;;;;;5.50;99.90;;;;;;5052760;28;19911;-83
2022/01/28 13:11:25;;;;;;;;;;;5.50;99.90;;;;;;5068397;28;20276;-84
2022/01/28 13:13:55;;;;;;;;;;;5.60;99.90;;;;;;5092280;28;20270;-83
2022/01/28 13:16:37;;;;;;;;;;;5.60;99.90;;;;;;5061058;28;19915;-83
2022/01/28 13:19:04;;;;;;;;;;;5.60;99.90;;;;;;5071536;28;20002;-83
2022/01/28 13:21:30;;;;;;;;;;;5.60;99.90;;;;;;5071288;28;19908;-83
2022/01/28 13:24:11;;;;;;;;;;;5.70;99.90;;;;;;5072066;28;19904;-84
2022/01/28 13:26:55;;;;;;;;;;;5.80;99.90;;;;;;5070591;28;19916;-83
2022/01/28 13:29:37;;;;;;;;;;;5.90;99.90;;;;;;5071229;28;19943;-83
2022/01/28 13:32:07;;;;;;;;;;;6.00;99.90;;;;;;5072753;28;19915;-83
2022/01/28 13:34:50;;;;;;;;;;;6.00;99.90;;;;;;5070707;28;19950;-84
2022/01/28 13:37:37;;;;;;;;;;;6.00;99.90;;;;;;5069916;28;20372;-83
2022/01/28 13:40:04;;;;;;;;;;;6.10;99.90;;;;;;5070770;28;20077;-83
2022/01/28 13:42:32;;;;;;;;;;;6.10;99.90;;;;;;5071220;28;20203;-83
2022/01/28 13:45:03;;;;;;;;;;;6.10;99.90;;;;;;5071078;28;20484;-83
2022/01/28 13:47:46;;;;;;;;;;;6.10;99.90;;;;;;5070173;28;19920;-84
2022/01/28 13:50:11;;;;;;;;;;;5.90;99.90;;;;;;5070274;28;19948;-83
2022/01/28 13:52:46;;;;;;;;;;;5.80;99.90;;;;;;5070536;28;19912;-83
2022/01/28 13:55:34;;;;;;;;;;;5.80;99.90;;;;;;5086344;28;19919;-83
2022/01/28 13:58:06;;;;;;;;;;;5.80;99.90;;;;;;5070440;28;19913;-83
2022/01/28 14:00:51;;;;;;;;;;;5.80;99.90;;;;;;5086209;28;20305;-83
2022/01/28 14:03:21;;;;;;;;;;;5.80;99.90;;;;;;5071555;28;19966;-84
2022/01/28 14:05:55;;;;;;;;;;;5.70;99.90;;;;;;5071938;28;19939;-84
2022/01/28 14:08:45;;;;;;;;;;;5.70;99.90;;;;;;5072133;28;19908;-83
2022/01/28 14:11:29;;;;;;;;;;;5.60;99.90;;;;;;5070508;28;19950;-84
2022/01/28 14:14:15;;;;;;;;;;;5.60;99.90;;;;;;5069737;28;19908;-85
2022/01/28 14:16:46;;;;;;;;;;;5.60;99.90;;;;;;5069218;28;20365;-86
2022/01/28 14:19:17;;;;;;;;;;;5.60;99.90;;;;;;5070560;28;19958;-86
2022/01/28 14:21:47;;;;;;;;;;;5.70;99.90;;;;;;5069166;28;19908;-85
2022/01/28 14:24:17;;;;;;;;;;;5.70;99.90;;;;;;5069886;28;19954;-85
2022/01/28 14:26:55;;;;;;;;;;;5.70;99.90;;;;;;5102449;28;19916;-85
2022/01/28 14:29:50;;;;;;;;;;;5.70;99.90;;;;;;5069325;28;19930;-85
2022/01/28 14:32:20;;;;;;;;;;;5.70;99.90;;;;;;5070117;28;19908;-85
2022/01/28 14:34:46;;;;;;;;;;;5.70;99.90;;;;;;5087756;28;19956;-85
2022/01/28 14:37:12;;;;;;;;;;;5.60;99.90;;;;;;5049041;28;19915;-85
2022/01/28 14:39:38;;;;;;;;;;;5.60;99.90;;;;;;5062605;28;19908;-86
2022/01/28 14:42:04;;;;;;;;;;;5.60;99.90;;;;;;5080067;28;19904;-86
2022/01/28 14:44:30;;;;;;;;;;;5.50;99.90;;;;;;5072547;28;19908;-85
2022/01/28 14:46:56;;;;;;;;;;;5.50;99.90;;;;;;5072191;28;19908;-86
2022/01/28 14:49:24;;;;;;;;;;;5.50;99.90;;;;;;5070680;28;20003;-85
2022/01/28 14:51:56;;;;;;;;;;;5.50;99.90;;;;;;5070359;28;19908;-85
2022/01/28 14:54:26;;;;;;;;;;;5.50;99.90;;;;;;5053317;28;19974;-85
2022/01/28 14:56:55;;;;;;;;;;;5.50;99.90;;;;;;5069553;28;20025;-84
2022/01/28 14:59:21;;;;;;;;;;;5.50;99.90;;;;;;5088529;28;19915;-85
2022/01/28 15:01:49;;;;;;;;;;;5.40;99.90;;;;;;5088737;28;20285;-85